44分钟前
罗盘
风向 的 风向 050° 蒙特利尔皮埃尔·埃利奥特·特鲁多国际机场 06L/24R
风: 4 千吨, 2 beaufort
0 500 1.500 3.000 5.000 8.000 10.000
没有云
METAR CYHU 261600Z AUTO 05004KT 9SM CLR M21/M27 A3048 RMK SLP325

METAR定义 | 嵌入

24小时趋势

航班类别VFRLIFR
温度-10 °C-24 °C
风速15 千吨0 千吨
能见度14 公里0 米

更多历史数据

下载我们的安卓应用程序

从你的主屏幕上轻松地访问你的航空天气。
只需一次付费,您就可以获得无广告的体验。

您会帮助我们保持Metar-Taf.com正常运行吗?
您的贡献有助于网站的进一步开发并支付费用。

没有更多广告

您是捐款5美元还是更多?然后,我们将永远不会再向您展示广告,这是我们永恒的感谢!
捐赠前先登录

METAR 蒙特利尔皮埃尔·埃利奥特·特鲁多国际机场

蒙特利尔皮埃尔·埃利奥特·特鲁多国际机场是Montréal,加拿大中的大型机场。 机场有{a,plural,=1{一条跑道} other{#跑道}}: 06R/24L, 06L/24R 和 10/28

蒙特利尔皮埃尔·埃利奥特·特鲁多国际机场最近未发布观察结果。相反,我们向您显示26 km的报告Montréal / Saint-Hubert Airport。 该报告是针对2022年1月26日 11:00, 当地时间进行的。

机场观察

风来自北东 (050°)方向,速度为4 千吨。

可见度为14 公里。

有没有云。 没有观察到天花板。

温度为-21 °C,阵风为-30 °C。 露点为-27 °C,相对湿度为59%。 海平面上的气压为1032 压力 (QNH)。

评论

  • 海平面压力为1032,5 压力 (SLP325)

白天

今天,太阳从07:22升起,在16:52降落。 这适用于蒙特利尔皮埃尔·埃利奥特·特鲁多国际机场,世界夏令时可能有所不同。 当地时间与世界标准时间之间的时差为-5 小时。 当前,没有夏令时有效。

公司介绍

我们没有关于这个机场的公司信息。

体会

到Vliegles.nl去找飞行课程,跳伞和其他飞行体验。 浏览页面,了解蒙特利尔皮埃尔·埃利奥特·特鲁多国际机场附近所有可用的活动。 你也可以使用搜索功能来寻找你所在地附近的特定飞行课程、跳伞或其他飞行体验。

您是否要在网站上蒙特利尔皮埃尔·埃利奥特·特鲁多国际机场飞行的天气? 阅读更多   自由!